Station History

Weather Underground - logo

Station Historical Data
Daily Summary for March 08, 2018 Units:  Both    English   Metric
« Previous Day
Next Day »
Daily Weekly Monthly Yearly Custom
  High: Low: Average:
Temperature: 74.0 °F /  23.3 °C 40.8 °F /  4.9 °C 56.8 °F /  13.8 °C
Dew Point: 49.7 °F /  9.8 °C 37.2 °F /  2.9 °C 41.4 °F /  5.2 °C
Humidity: 90 % 31 % 62 %
Wind Speed: 6.9 mph /  11.1 km/h - 1.3 mph /  2.1 km/h
Wind Gust: 6.9 mph /  11.1 km/h - -
Wind:- - SW
Pressure: 30.15 in /  1020.9 hPa 30.01 in /  1016.1 hPa -
Precipitation: 0.00 in /  0 mm    
Historical Graphs
 
 
Tabular Data for March 08, 2018
Time Temperature Dew Point Pressure Wind Wind Speed Wind Gust Humidity Rainfall Rate (Hourly)
00:01 45.7 °F /  7.6 °C 41.8 °F /  5.4 °C 30.07 in /  1018.2 hPa Calm     86 % 0.00 in /  0 mm
00:06 45.8 °F /  7.7 °C 42.2 °F /  5.7 °C 30.07 in /  1018.2 hPa Calm     87 % 0.00 in /  0 mm
00:11 45.8 °F /  7.7 °C 41.9 °F /  5.5 °C 30.07 in /  1018.2 hPa Calm     86 % 0.00 in /  0 mm
00:16 45.3 °F /  7.4 °C 41.1 °F /  5.1 °C 30.07 in /  1018.2 hPa Calm     85 % 0.00 in /  0 mm
00:21 45.2 °F /  7.3 °C 41.6 °F /  5.3 °C 30.07 in /  1018.2 hPa Calm     87 % 0.00 in /  0 mm
00:27 45.5 °F /  7.5 °C 41.9 °F /  5.5 °C 30.08 in /  1018.5 hPa Calm     87 % 0.00 in /  0 mm
00:32 45.7 °F /  7.6 °C 42.1 °F /  5.6 °C 30.08 in /  1018.5 hPa Calm     87 % 0.00 in /  0 mm
00:37 46.0 °F /  7.8 °C 42.0 °F /  5.6 °C 30.08 in /  1018.5 hPa Calm     86 % 0.00 in /  0 mm
00:42 45.9 °F /  7.7 °C 41.6 °F /  5.3 °C 30.08 in /  1018.5 hPa Calm     85 % 0.00 in /  0 mm
00:47 45.3 °F /  7.4 °C 40.7 °F /  4.8 °C 30.08 in /  1018.5 hPa Calm     84 % 0.00 in /  0 mm
00:52 45.0 °F /  7.2 °C 40.8 °F /  4.9 °C 30.08 in /  1018.5 hPa Calm     85 % 0.00 in /  0 mm
00:57 44.6 °F /  7 °C 40.7 °F /  4.8 °C 30.08 in /  1018.5 hPa Calm     86 % 0.00 in /  0 mm
01:02 44.5 °F /  6.9 °C 40.9 °F /  4.9 °C 30.09 in /  1018.8 hPa Calm     87 % 0.00 in /  0 mm
01:07 44.8 °F /  7.1 °C 41.2 °F /  5.1 °C 30.09 in /  1018.8 hPa WNW 1.0 mph /  1.6 km/h 1.0 mph /  1.6 km/h 87 % 0.00 in /  0 mm
01:12 45.3 °F /  7.4 °C 41.4 °F /  5.2 °C 30.09 in /  1018.8 hPa Calm     86 % 0.00 in /  0 mm
01:17 45.5 °F /  7.5 °C 41.3 °F /  5.2 °C 30.09 in /  1018.8 hPa Calm     85 % 0.00 in /  0 mm
01:22 45.6 °F /  7.6 °C 41.0 °F /  5 °C 30.09 in /  1018.8 hPa Calm     84 % 0.00 in /  0 mm
01:27 45.5 °F /  7.5 °C 40.9 °F /  4.9 °C 30.09 in /  1018.8 hPa Calm     84 % 0.00 in /  0 mm
01:32 45.3 °F /  7.4 °C 41.1 °F /  5.1 °C 30.09 in /  1018.8 hPa Calm     85 % 0.00 in /  0 mm
01:37 45.0 °F /  7.2 °C 40.5 °F /  4.7 °C 30.09 in /  1018.8 hPa Calm     84 % 0.00 in /  0 mm
01:42 44.6 °F /  7 °C 40.4 °F /  4.7 °C 30.08 in /  1018.5 hPa Calm     85 % 0.00 in /  0 mm
01:47 44.3 °F /  6.8 °C 40.1 °F /  4.5 °C 30.08 in /  1018.5 hPa Calm     85 % 0.00 in /  0 mm
01:52 43.7 °F /  6.5 °C 39.5 °F /  4.2 °C 30.08 in /  1018.5 hPa Calm     85 % 0.00 in /  0 mm
01:57 43.2 °F /  6.2 °C 39.0 °F /  3.9 °C 30.08 in /  1018.5 hPa Calm     85 % 0.00 in /  0 mm
02:02 42.5 °F /  5.8 °C 38.3 °F /  3.5 °C 30.08 in /  1018.5 hPa Calm     85 % 0.00 in /  0 mm
02:07 42.1 °F /  5.6 °C 38.2 °F /  3.4 °C 30.09 in /  1018.8 hPa Calm     86 % 0.00 in /  0 mm
02:12 42.1 °F /  5.6 °C 38.8 °F /  3.8 °C 30.09 in /  1018.8 hPa Calm     88 % 0.00 in /  0 mm
02:17 42.0 °F /  5.6 °C 38.7 °F /  3.7 °C 30.09 in /  1018.8 hPa SE 1.2 mph /  1.9 km/h   88 % 0.00 in /  0 mm
02:22 41.8 °F /  5.4 °C 38.2 °F /  3.4 °C 30.09 in /  1018.8 hPa Calm     87 % 0.00 in /  0 mm
02:27 41.8 °F /  5.4 °C 38.5 °F /  3.6 °C 30.09 in /  1018.8 hPa Calm     88 % 0.00 in /  0 mm
02:32 41.9 °F /  5.5 °C 38.9 °F /  3.8 °C 30.08 in /  1018.5 hPa Calm     89 % 0.00 in /  0 mm
02:37 42.2 °F /  5.7 °C 39.2 °F /  4 °C 30.08 in /  1018.5 hPa Calm     89 % 0.00 in /  0 mm
02:42 42.6 °F /  5.9 °C 39.3 °F /  4.1 °C 30.08 in /  1018.5 hPa Calm     88 % 0.00 in /  0 mm
02:47 42.9 °F /  6.1 °C 39.6 °F /  4.2 °C 30.08 in /  1018.5 hPa Calm     88 % 0.00 in /  0 mm
02:52 43.1 °F /  6.2 °C 39.5 °F /  4.2 °C 30.08 in /  1018.5 hPa Calm     87 % 0.00 in /  0 mm
02:57 42.9 °F /  6.1 °C 39.0 °F /  3.9 °C 30.07 in /  1018.2 hPa Calm     86 % 0.00 in /  0 mm
03:02 42.8 °F /  6 °C 39.2 °F /  4 °C 30.08 in /  1018.5 hPa Calm     87 % 0.00 in /  0 mm
03:07 42.2 °F /  5.7 °C 38.3 °F /  3.5 °C 30.08 in /  1018.5 hPa Calm     86 % 0.00 in /  0 mm
03:12 41.8 °F /  5.4 °C 38.2 °F /  3.4 °C 30.08 in /  1018.5 hPa Calm     87 % 0.00 in /  0 mm
03:17 41.5 °F /  5.3 °C 38.2 °F /  3.4 °C 30.08 in /  1018.5 hPa Calm     88 % 0.00 in /  0 mm
03:22 41.3 °F /  5.2 °C 38.0 °F /  3.3 °C 30.08 in /  1018.5 hPa Calm     88 % 0.00 in /  0 mm
03:27 41.2 °F /  5.1 °C 38.2 °F /  3.4 °C 30.08 in /  1018.5 hPa Calm     89 % 0.00 in /  0 mm
03:32 41.1 °F /  5.1 °C 38.1 °F /  3.4 °C 30.08 in /  1018.5 hPa Calm     89 % 0.00 in /  0 mm
03:37 41.1 °F /  5.1 °C 38.1 °F /  3.4 °C 30.08 in /  1018.5 hPa Calm     89 % 0.00 in /  0 mm
03:42 40.9 °F /  4.9 °C 37.9 °F /  3.3 °C 30.08 in /  1018.5 hPa Calm     89 % 0.00 in /  0 mm
03:47 40.9 °F /  4.9 °C 38.2 °F /  3.4 °C 30.09 in /  1018.8 hPa Calm     90 % 0.00 in /  0 mm
03:52 40.9 °F /  4.9 °C 37.9 °F /  3.3 °C 30.09 in /  1018.8 hPa Calm     89 % 0.00 in /  0 mm
03:57 40.8 °F /  4.9 °C 37.8 °F /  3.2 °C 30.09 in /  1018.8 hPa Calm     89 % 0.00 in /  0 mm
04:02 40.8 °F /  4.9 °C 37.8 °F /  3.2 °C 30.09 in /  1018.8 hPa Calm     89 % 0.00 in /  0 mm
04:08 41.1 °F /  5.1 °C 38.1 °F /  3.4 °C 30.09 in /  1018.8 hPa Calm     89 % 0.00 in /  0 mm
04:13 41.6 °F /  5.3 °C 38.3 °F /  3.5 °C 30.09 in /  1018.8 hPa Calm     88 % 0.00 in /  0 mm
04:18 42.0 °F /  5.6 °C 38.4 °F /  3.6 °C 30.09 in /  1018.8 hPa Calm     87 % 0.00 in /  0 mm
04:23 42.3 °F /  5.7 °C 38.4 °F /  3.6 °C 30.09 in /  1018.8 hPa Calm     86 % 0.00 in /  0 mm
04:28 42.6 °F /  5.9 °C 38.4 °F /  3.6 °C 30.09 in /  1018.8 hPa Calm     85 % 0.00 in /  0 mm
04:33 42.9 °F /  6.1 °C 38.4 °F /  3.6 °C 30.09 in /  1018.8 hPa ESE 1.2 mph /  1.9 km/h   84 % 0.00 in /  0 mm
04:38 43.1 °F /  6.2 °C 38.6 °F /  3.7 °C 30.10 in /  1019.2 hPa ESE 1.2 mph /  1.9 km/h   84 % 0.00 in /  0 mm
04:43 43.2 °F /  6.2 °C 38.4 °F /  3.6 °C 30.10 in /  1019.2 hPa ESE 1.2 mph /  1.9 km/h   83 % 0.00 in /  0 mm
04:48 43.2 °F /  6.2 °C 38.4 °F /  3.6 °C 30.10 in /  1019.2 hPa Calm     83 % 0.00 in /  0 mm
04:53 43.2 °F /  6.2 °C 38.4 °F /  3.6 °C 30.10 in /  1019.2 hPa Calm     83 % 0.00 in /  0 mm
04:58 43.1 °F /  6.2 °C 38.3 °F /  3.5 °C 30.10 in /  1019.2 hPa Calm     83 % 0.00 in /  0 mm
05:03 42.9 °F /  6.1 °C 38.1 °F /  3.4 °C 30.10 in /  1019.2 hPa Calm     83 % 0.00 in /  0 mm
05:08 42.5 °F /  5.8 °C 38.0 °F /  3.3 °C 30.10 in /  1019.2 hPa Calm     84 % 0.00 in /  0 mm
05:13 42.2 °F /  5.7 °C 37.7 °F /  3.2 °C 30.10 in /  1019.2 hPa Calm     84 % 0.00 in /  0 mm
05:18 42.1 °F /  5.6 °C 37.9 °F /  3.3 °C 30.10 in /  1019.2 hPa Calm     85 % 0.00 in /  0 mm
05:23 41.8 °F /  5.4 °C 37.9 °F /  3.3 °C 30.10 in /  1019.2 hPa Calm     86 % 0.00 in /  0 mm
05:28 41.8 °F /  5.4 °C 37.9 °F /  3.3 °C 30.10 in /  1019.2 hPa Calm     86 % 0.00 in /  0 mm
05:33 42.3 °F /  5.7 °C 37.8 °F /  3.2 °C 30.10 in /  1019.2 hPa Calm     84 % 0.00 in /  0 mm
05:38 43.1 °F /  6.2 °C 38.3 °F /  3.5 °C 30.10 in /  1019.2 hPa Calm     83 % 0.00 in /  0 mm
05:43 43.1 °F /  6.2 °C 38.3 °F /  3.5 °C 30.10 in /  1019.2 hPa Calm     83 % 0.00 in /  0 mm
05:48 43.0 °F /  6.1 °C 37.9 °F /  3.3 °C 30.10 in /  1019.2 hPa Calm     82 % 0.00 in /  0 mm
05:53 42.9 °F /  6.1 °C 37.8 °F /  3.2 °C 30.11 in /  1019.5 hPa Calm     82 % 0.00 in /  0 mm
05:58 42.7 °F /  5.9 °C 38.2 °F /  3.4 °C 30.11 in /  1019.5 hPa Calm     84 % 0.00 in /  0 mm
06:03 42.5 °F /  5.8 °C 38.0 °F /  3.3 °C 30.11 in /  1019.5 hPa Calm     84 % 0.00 in /  0 mm
06:08 42.3 °F /  5.7 °C 37.8 °F /  3.2 °C 30.11 in /  1019.5 hPa Calm     84 % 0.00 in /  0 mm
06:13 42.1 °F /  5.6 °C 37.6 °F /  3.1 °C 30.11 in /  1019.5 hPa Calm     84 % 0.00 in /  0 mm
06:18 41.8 °F /  5.4 °C 37.6 °F /  3.1 °C 30.11 in /  1019.5 hPa Calm     85 % 0.00 in /  0 mm
06:23 41.2 °F /  5.1 °C 37.3 °F /  2.9 °C 30.11 in /  1019.5 hPa Calm   0.1 mph /  0.2 km/h 86 % 0.00 in /  0 mm
06:28 41.1 °F /  5.1 °C 37.2 °F /  2.9 °C 30.11 in /  1019.5 hPa Calm     86 % 0.00 in /  0 mm
06:33 40.9 °F /  4.9 °C 37.3 °F /  2.9 °C 30.11 in /  1019.5 hPa Calm     87 % 0.00 in /  0 mm
06:38 41.1 °F /  5.1 °C 37.5 °F /  3.1 °C 30.12 in /  1019.9 hPa Calm     87 % 0.00 in /  0 mm
06:43 41.5 °F /  5.3 °C 37.6 °F /  3.1 °C 30.12 in /  1019.9 hPa Calm     86 % 0.00 in /  0 mm
06:48 41.5 °F /  5.3 °C 37.6 °F /  3.1 °C 30.12 in /  1019.9 hPa Calm     86 % 0.00 in /  0 mm
06:53 41.7 °F /  5.4 °C 37.8 °F /  3.2 °C 30.12 in /  1019.9 hPa Calm     86 % 0.00 in /  0 mm
06:58 42.0 °F /  5.6 °C 38.1 °F /  3.4 °C 30.12 in /  1019.9 hPa Calm     86 % 0.00 in /  0 mm
07:03 42.2 °F /  5.7 °C 38.3 °F /  3.5 °C 30.12 in /  1019.9 hPa Calm     86 % 0.00 in /  0 mm
07:08 43.0 °F /  6.1 °C 38.8 °F /  3.8 °C 30.12 in /  1019.9 hPa ESE 1.2 mph /  1.9 km/h   85 % 0.00 in /  0 mm
07:13 43.9 °F /  6.6 °C 39.4 °F /  4.1 °C 30.12 in /  1019.9 hPa Calm     84 % 0.00 in /  0 mm
07:18 44.6 °F /  7 °C 39.1 °F /  3.9 °C 30.12 in /  1019.9 hPa Calm     81 % 0.00 in /  0 mm
07:24 45.2 °F /  7.3 °C 39.4 °F /  4.1 °C 30.13 in /  1020.2 hPa Calm     80 % 0.00 in /  0 mm
07:29 45.9 °F /  7.7 °C 39.4 °F /  4.1 °C 30.13 in /  1020.2 hPa Calm     78 % 0.00 in /  0 mm
07:34 46.7 °F /  8.2 °C 39.9 °F /  4.4 °C 30.13 in /  1020.2 hPa Calm     77 % 0.00 in /  0 mm
07:39 47.6 °F /  8.7 °C 39.7 °F /  4.3 °C 30.14 in /  1020.5 hPa Calm     74 % 0.00 in /  0 mm
07:44 48.1 °F /  8.9 °C 40.9 °F /  4.9 °C 30.14 in /  1020.5 hPa Calm     76 % 0.00 in /  0 mm
07:49 48.6 °F /  9.2 °C 41.4 °F /  5.2 °C 30.14 in /  1020.5 hPa Calm     76 % 0.00 in /  0 mm
07:54 49.4 °F /  9.7 °C 41.8 °F /  5.4 °C 30.14 in /  1020.5 hPa Calm     75 % 0.00 in /  0 mm
07:59 50.1 °F /  10.1 °C 41.8 °F /  5.4 °C 30.15 in /  1020.9 hPa Calm     73 % 0.00 in /  0 mm
08:04 51.0 °F /  10.6 °C 42.3 °F /  5.7 °C 30.15 in /  1020.9 hPa Calm     72 % 0.00 in /  0 mm
08:09 52.2 °F /  11.2 °C 42.3 °F /  5.7 °C 30.14 in /  1020.5 hPa Calm     69 % 0.00 in /  0 mm
08:14 53.7 °F /  12.1 °C 41.8 °F /  5.4 °C 30.15 in /  1020.9 hPa Calm     64 % 0.00 in /  0 mm
08:19 54.5 °F /  12.5 °C 42.2 °F /  5.7 °C 30.15 in /  1020.9 hPa Calm     63 % 0.00 in /  0 mm
08:24 55.9 °F /  13.3 °C 41.8 °F /  5.4 °C 30.15 in /  1020.9 hPa Calm     59 % 0.00 in /  0 mm
08:29 57.1 °F /  13.9 °C 42.5 °F /  5.8 °C 30.14 in /  1020.5 hPa Calm     58 % 0.00 in /  0 mm
08:34 58.1 °F /  14.5 °C 39.0 °F /  3.9 °C 30.15 in /  1020.9 hPa ESE 1.2 mph /  1.9 km/h 1.2 mph /  1.9 km/h 49 % 0.00 in /  0 mm
08:39 58.7 °F /  14.8 °C 39.6 °F /  4.2 °C 30.15 in /  1020.9 hPa SE 1.2 mph /  1.9 km/h   49 % 0.00 in /  0 mm
08:44 59.6 °F /  15.3 °C 41.4 °F /  5.2 °C 30.15 in /  1020.9 hPa Calm     51 % 0.00 in /  0 mm
08:49 60.0 °F /  15.6 °C 41.8 °F /  5.4 °C 30.15 in /  1020.9 hPa ESE 1.2 mph /  1.9 km/h   51 % 0.00 in /  0 mm
08:54 60.8 °F /  16 °C 40.4 °F /  4.7 °C 30.15 in /  1020.9 hPa SE 1.0 mph /  1.6 km/h 1.0 mph /  1.6 km/h 47 % 0.00 in /  0 mm
08:59 61.4 °F /  16.3 °C 41.5 °F /  5.3 °C 30.15 in /  1020.9 hPa Calm     48 % 0.00 in /  0 mm
09:04 61.8 °F /  16.6 °C 40.8 °F /  4.9 °C 30.15 in /  1020.9 hPa SE 2.3 mph /  3.7 km/h 2.3 mph /  3.7 km/h 46 % 0.00 in /  0 mm
09:09 62.2 °F /  16.8 °C 41.7 °F /  5.4 °C 30.15 in /  1020.9 hPa SSW 1.2 mph /  1.9 km/h 1.2 mph /  1.9 km/h 47 % 0.00 in /  0 mm
09:14 63.0 °F /  17.2 °C 40.7 °F /  4.8 °C 30.15 in /  1020.9 hPa SSE 1.2 mph /  1.9 km/h 1.2 mph /  1.9 km/h 44 % 0.00 in /  0 mm
09:19 63.7 °F /  17.6 °C 40.8 °F /  4.9 °C 30.15 in /  1020.9 hPa SSE 2.0 mph /  3.2 km/h 2.0 mph /  3.2 km/h 43 % 0.00 in /  0 mm
09:24 63.8 °F /  17.7 °C 40.9 °F /  4.9 °C 30.14 in /  1020.5 hPa Calm     43 % 0.00 in /  0 mm
09:29 63.8 °F /  17.7 °C 40.3 °F /  4.6 °C 30.14 in /  1020.5 hPa ESE 1.2 mph /  1.9 km/h 1.2 mph /  1.9 km/h 42 % 0.00 in /  0 mm
09:34 63.8 °F /  17.7 °C 39.6 °F /  4.2 °C 30.14 in /  1020.5 hPa ESE 2.3 mph /  3.7 km/h 2.3 mph /  3.7 km/h 41 % 0.00 in /  0 mm
09:39 64.0 °F /  17.8 °C 39.2 °F /  4 °C 30.14 in /  1020.5 hPa NE 6.9 mph /  11.1 km/h 6.9 mph /  11.1 km/h 40 % 0.00 in /  0 mm
09:44 64.1 °F /  17.8 °C 39.9 °F /  4.4 °C 30.14 in /  1020.5 hPa SE 1.2 mph /  1.9 km/h 1.2 mph /  1.9 km/h 41 % 0.00 in /  0 mm
09:49 64.5 °F /  18.1 °C 39.0 °F /  3.9 °C 30.14 in /  1020.5 hPa South 4.6 mph /  7.4 km/h 4.6 mph /  7.4 km/h 39 % 0.00 in /  0 mm
09:54 64.9 °F /  18.3 °C 40.0 °F /  4.4 °C 30.13 in /  1020.2 hPa SE 4.0 mph /  6.4 km/h 4.0 mph /  6.4 km/h 40 % 0.00 in /  0 mm
09:59 65.1 °F /  18.4 °C 40.2 °F /  4.6 °C 30.13 in /  1020.2 hPa NE 1.2 mph /  1.9 km/h 1.2 mph /  1.9 km/h 40 % 0.00 in /  0 mm
10:04 65.4 °F /  18.6 °C 38.4 °F /  3.6 °C 30.13 in /  1020.2 hPa East 3.5 mph /  5.6 km/h 3.5 mph /  5.6 km/h 37 % 0.00 in /  0 mm
10:09 65.7 °F /  18.7 °C 38.7 °F /  3.7 °C 30.13 in /  1020.2 hPa SSE 4.0 mph /  6.4 km/h 4.0 mph /  6.4 km/h 37 % 0.00 in /  0 mm
10:14 66.1 °F /  18.9 °C 38.4 °F /  3.6 °C 30.13 in /  1020.2 hPa SE 3.5 mph /  5.6 km/h 3.5 mph /  5.6 km/h 36 % 0.00 in /  0 mm
10:19 66.3 °F /  19.1 °C 37.8 °F /  3.2 °C 30.12 in /  1019.9 hPa ESE 3.5 mph /  5.6 km/h 3.5 mph /  5.6 km/h 35 % 0.00 in /  0 mm
10:24 66.7 °F /  19.3 °C 38.9 °F /  3.8 °C 30.12 in /  1019.9 hPa SE 3.5 mph /  5.6 km/h 3.5 mph /  5.6 km/h 36 % 0.00 in /  0 mm
10:29 67.1 °F /  19.5 °C 39.9 °F /  4.4 °C 30.12 in /  1019.9 hPa SE 3.5 mph /  5.6 km/h 3.5 mph /  5.6 km/h 37 % 0.00 in /  0 mm
10:34 67.9 °F /  19.9 °C 39.2 °F /  4 °C 30.12 in /  1019.9 hPa Calm   0.2 mph /  0.3 km/h 35 % 0.00 in /  0 mm
10:39 68.6 °F /  20.3 °C 39.8 °F /  4.3 °C 30.12 in /  1019.9 hPa SE 4.6 mph /  7.4 km/h 4.6 mph /  7.4 km/h 35 % 0.00 in /  0 mm
10:44 68.8 °F /  20.4 °C 39.3 °F /  4.1 °C 30.12 in /  1019.9 hPa SE 6.0 mph /  9.7 km/h 6.0 mph /  9.7 km/h 34 % 0.00 in /  0 mm
10:50 68.9 °F /  20.5 °C 40.8 °F /  4.9 °C 30.12 in /  1019.9 hPa SSE 4.0 mph /  6.4 km/h 4.0 mph /  6.4 km/h 36 % 0.00 in /  0 mm
10:55 69.1 °F /  20.6 °C 39.5 °F /  4.2 °C 30.12 in /  1019.9 hPa SE 3.5 mph /  5.6 km/h 3.5 mph /  5.6 km/h 34 % 0.00 in /  0 mm
11:00 69.5 °F /  20.8 °C 40.6 °F /  4.8 °C 30.11 in /  1019.5 hPa SSW 6.9 mph /  11.1 km/h 6.9 mph /  11.1 km/h 35 % 0.00 in /  0 mm
11:05 69.6 °F /  20.9 °C 41.5 °F /  5.3 °C 30.11 in /  1019.5 hPa SE 3.5 mph /  5.6 km/h 3.5 mph /  5.6 km/h 36 % 0.00 in /  0 mm
11:10 70.0 °F /  21.1 °C 41.1 °F /  5.1 °C 30.11 in /  1019.5 hPa SSE 3.5 mph /  5.6 km/h 3.5 mph /  5.6 km/h 35 % 0.00 in /  0 mm
11:15 70.5 °F /  21.4 °C 42.2 °F /  5.7 °C 30.11 in /  1019.5 hPa South 3.5 mph /  5.6 km/h 3.5 mph /  5.6 km/h 36 % 0.00 in /  0 mm
11:20 70.7 °F /  21.5 °C 42.4 °F /  5.8 °C 30.11 in /  1019.5 hPa East 3.5 mph /  5.6 km/h 3.5 mph /  5.6 km/h 36 % 0.00 in /  0 mm
11:25 70.7 °F /  21.5 °C 43.8 °F /  6.6 °C 30.11 in /  1019.5 hPa South 3.5 mph /  5.6 km/h 3.5 mph /  5.6 km/h 38 % 0.00 in /  0 mm
11:30 70.8 °F /  21.6 °C 44.6 °F /  7 °C 30.11 in /  1019.5 hPa NNW 3.5 mph /  5.6 km/h 3.5 mph /  5.6 km/h 39 % 0.00 in /  0 mm
11:35 70.9 °F /  21.6 °C 44.7 °F /  7.1 °C 30.11 in /  1019.5 hPa West 3.5 mph /  5.6 km/h 3.5 mph /  5.6 km/h 39 % 0.00 in /  0 mm
11:40 70.8 °F /  21.6 °C 44.6 °F /  7 °C 30.10 in /  1019.2 hPa SW 2.3 mph /  3.7 km/h 2.3 mph /  3.7 km/h 39 % 0.00 in /  0 mm
11:45 70.3 °F /  21.3 °C 44.2 °F /  6.8 °C 30.10 in /  1019.2 hPa NNW 4.0 mph /  6.4 km/h 4.0 mph /  6.4 km/h 39 % 0.00 in /  0 mm
11:50 70.1 °F /  21.2 °C 44.6 °F /  7 °C 30.10 in /  1019.2 hPa NNW 2.3 mph /  3.7 km/h 2.3 mph /  3.7 km/h 40 % 0.00 in /  0 mm
11:55 70.4 °F /  21.3 °C 44.3 °F /  6.8 °C 30.10 in /  1019.2 hPa NNW 2.3 mph /  3.7 km/h 2.3 mph /  3.7 km/h 39 % 0.00 in /  0 mm
12:00 70.1 °F /  21.2 °C 45.3 °F /  7.4 °C 30.10 in /  1019.2 hPa NW 5.8 mph /  9.3 km/h 5.8 mph /  9.3 km/h 41 % 0.00 in /  0 mm
12:05 70.1 °F /  21.2 °C 45.9 °F /  7.7 °C 30.09 in /  1018.8 hPa SSW 2.3 mph /  3.7 km/h 2.3 mph /  3.7 km/h 42 % 0.00 in /  0 mm
12:10 70.3 °F /  21.3 °C 46.7 °F /  8.2 °C 30.09 in /  1018.8 hPa South 2.3 mph /  3.7 km/h 2.3 mph /  3.7 km/h 43 % 0.00 in /  0 mm
12:15 70.4 °F /  21.3 °C 46.8 °F /  8.2 °C 30.09 in /  1018.8 hPa NNW 2.3 mph /  3.7 km/h 2.3 mph /  3.7 km/h 43 % 0.00 in /  0 mm
12:20 70.7 °F /  21.5 °C 48.3 °F /  9.1 °C 30.09 in /  1018.8 hPa SSE 1.2 mph /  1.9 km/h 1.2 mph /  1.9 km/h 45 % 0.00 in /  0 mm
12:25 71.3 °F /  21.8 °C 48.3 °F /  9.1 °C 30.09 in /  1018.8 hPa NW 3.5 mph /  5.6 km/h 3.5 mph /  5.6 km/h 44 % 0.00 in /  0 mm
12:30 70.9 °F /  21.6 °C 48.5 °F /  9.2 °C 30.09 in /  1018.8 hPa SSW 3.5 mph /  5.6 km/h 3.5 mph /  5.6 km/h 45 % 0.00 in /  0 mm
12:35 71.1 °F /  21.7 °C 48.1 °F /  8.9 °C 30.09 in /  1018.8 hPa SSE 3.5 mph /  5.6 km/h 3.5 mph /  5.6 km/h 44 % 0.00 in /  0 mm
12:40 71.0 °F /  21.7 °C 48.0 °F /  8.9 °C 30.09 in /  1018.8 hPa North 3.5 mph /  5.6 km/h 3.5 mph /  5.6 km/h 44 % 0.00 in /  0 mm
12:45 71.4 °F /  21.9 °C 47.7 °F /  8.7 °C 30.09 in /  1018.8 hPa NW 3.0 mph /  4.8 km/h 3.0 mph /  4.8 km/h 43 % 0.00 in /  0 mm
12:50 71.6 °F /  22 °C 49.7 °F /  9.8 °C 30.08 in /  1018.5 hPa SE 4.6 mph /  7.4 km/h 4.6 mph /  7.4 km/h 46 % 0.00 in /  0 mm
12:55 71.9 °F /  22.2 °C 48.8 °F /  9.3 °C 30.08 in /  1018.5 hPa ENE 3.5 mph /  5.6 km/h 3.5 mph /  5.6 km/h 44 % 0.00 in /  0 mm
13:00 72.2 °F /  22.3 °C 47.8 °F /  8.8 °C 30.08 in /  1018.5 hPa WNW 2.3 mph /  3.7 km/h 2.3 mph /  3.7 km/h 42 % 0.00 in /  0 mm
13:05 72.0 °F /  22.2 °C 48.3 °F /  9.1 °C 30.08 in /  1018.5 hPa NNW 2.3 mph /  3.7 km/h 2.3 mph /  3.7 km/h 43 % 0.00 in /  0 mm
13:10 72.4 °F /  22.4 °C 48.6 °F /  9.2 °C 30.07 in /  1018.2 hPa SSE 2.0 mph /  3.2 km/h 2.0 mph /  3.2 km/h 43 % 0.00 in /  0 mm
13:15 72.5 °F /  22.5 °C 47.5 °F /  8.6 °C 30.07 in /  1018.2 hPa SW 3.5 mph /  5.6 km/h 3.5 mph /  5.6 km/h 41 % 0.00 in /  0 mm
13:20 72.6 °F /  22.6 °C 47.5 °F /  8.6 °C 30.07 in /  1018.2 hPa WNW 3.5 mph /  5.6 km/h 3.5 mph /  5.6 km/h 41 % 0.00 in /  0 mm
13:25 71.8 °F /  22.1 °C 46.2 °F /  7.9 °C 30.06 in /  1017.8 hPa NNW 1.2 mph /  1.9 km/h   40 % 0.00 in /  0 mm
13:30 71.5 °F /  21.9 °C 46.6 °F /  8.1 °C 30.06 in /  1017.8 hPa NNW 1.0 mph /  1.6 km/h 1.0 mph /  1.6 km/h 41 % 0.00 in /  0 mm
13:35 71.7 °F /  22.1 °C 46.7 °F /  8.2 °C 30.06 in /  1017.8 hPa NNW 2.3 mph /  3.7 km/h 2.3 mph /  3.7 km/h 41 % 0.00 in /  0 mm
13:40 71.6 °F /  22 °C 46.6 °F /  8.1 °C 30.06 in /  1017.8 hPa NW 2.0 mph /  3.2 km/h 2.0 mph /  3.2 km/h 41 % 0.00 in /  0 mm
13:45 72.0 °F /  22.2 °C 47.0 °F /  8.3 °C 30.06 in /  1017.8 hPa NNW 2.3 mph /  3.7 km/h   41 % 0.00 in /  0 mm
13:50 72.8 °F /  22.7 °C 45.7 °F /  7.6 °C 30.05 in /  1017.5 hPa ESE 2.3 mph /  3.7 km/h 2.3 mph /  3.7 km/h 38 % 0.00 in /  0 mm
13:55 73.0 °F /  22.8 °C 46.6 °F /  8.1 °C 30.05 in /  1017.5 hPa West 2.3 mph /  3.7 km/h 2.3 mph /  3.7 km/h 39 % 0.00 in /  0 mm
14:00 73.3 °F /  22.9 °C 46.2 °F /  7.9 °C 30.05 in /  1017.5 hPa WNW 3.5 mph /  5.6 km/h 3.5 mph /  5.6 km/h 38 % 0.00 in /  0 mm
14:05 73.0 °F /  22.8 °C 47.2 °F /  8.4 °C 30.05 in /  1017.5 hPa NW 1.0 mph /  1.6 km/h 1.0 mph /  1.6 km/h 40 % 0.00 in /  0 mm
14:10 72.9 °F /  22.7 °C 47.2 °F /  8.4 °C 30.05 in /  1017.5 hPa SE 1.2 mph /  1.9 km/h 1.2 mph /  1.9 km/h 40 % 0.00 in /  0 mm
14:15 73.3 °F /  22.9 °C 46.2 °F /  7.9 °C 30.05 in /  1017.5 hPa NW 3.5 mph /  5.6 km/h 3.5 mph /  5.6 km/h 38 % 0.00 in /  0 mm
14:20 73.3 °F /  22.9 °C 46.2 °F /  7.9 °C 30.04 in /  1017.2 hPa WNW 1.2 mph /  1.9 km/h 1.2 mph /  1.9 km/h 38 % 0.00 in /  0 mm
14:25 73.2 °F /  22.9 °C 46.8 °F /  8.2 °C 30.04 in /  1017.2 hPa NE 3.5 mph /  5.6 km/h 3.5 mph /  5.6 km/h 39 % 0.00 in /  0 mm
14:30 73.6 °F /  23.1 °C 46.4 °F /  8 °C 30.04 in /  1017.2 hPa NW 3.5 mph /  5.6 km/h 3.5 mph /  5.6 km/h 38 % 0.00 in /  0 mm
14:35 73.1 °F /  22.8 °C 44.5 °F /  6.9 °C 30.04 in /  1017.2 hPa WNW 2.3 mph /  3.7 km/h 2.3 mph /  3.7 km/h 36 % 0.00 in /  0 mm
14:40 73.1 °F /  22.8 °C 45.3 °F /  7.4 °C 30.04 in /  1017.2 hPa Calm     37 % 0.00 in /  0 mm
14:46 73.4 °F /  23 °C 43.3 °F /  6.3 °C 30.04 in /  1017.2 hPa Calm     34 % 0.00 in /  0 mm
14:51 73.9 °F /  23.3 °C 43.0 °F /  6.1 °C 30.03 in /  1016.8 hPa South 1.2 mph /  1.9 km/h 1.2 mph /  1.9 km/h 33 % 0.00 in /  0 mm
14:56 74.0 °F /  23.3 °C 43.1 °F /  6.2 °C 30.03 in /  1016.8 hPa Calm     33 % 0.00 in /  0 mm
15:01 73.8 °F /  23.2 °C 43.7 °F /  6.5 °C 30.03 in /  1016.8 hPa WNW 1.2 mph /  1.9 km/h 1.2 mph /  1.9 km/h 34 % 0.00 in /  0 mm
15:06 73.7 °F /  23.2 °C 44.3 °F /  6.8 °C 30.03 in /  1016.8 hPa NW 3.5 mph /  5.6 km/h 3.5 mph /  5.6 km/h 35 % 0.00 in /  0 mm
15:11 73.6 °F /  23.1 °C 42.7 °F /  5.9 °C 30.02 in /  1016.5 hPa NW 1.2 mph /  1.9 km/h   33 % 0.00 in /  0 mm
15:16 73.6 °F /  23.1 °C 41.1 °F /  5.1 °C 30.02 in /  1016.5 hPa NW 2.3 mph /  3.7 km/h 2.3 mph /  3.7 km/h 31 % 0.00 in /  0 mm
15:21 73.6 °F /  23.1 °C 41.9 °F /  5.5 °C 30.02 in /  1016.5 hPa South 1.2 mph /  1.9 km/h 1.2 mph /  1.9 km/h 32 % 0.00 in /  0 mm
15:26 73.6 °F /  23.1 °C 42.7 °F /  5.9 °C 30.02 in /  1016.5 hPa NW 1.2 mph /  1.9 km/h 1.2 mph /  1.9 km/h 33 % 0.00 in /  0 mm
15:31 73.4 °F /  23 °C 42.5 °F /  5.8 °C 30.02 in /  1016.5 hPa Calm     33 % 0.00 in /  0 mm
15:36 73.2 °F /  22.9 °C 43.1 °F /  6.2 °C 30.02 in /  1016.5 hPa WNW 1.2 mph /  1.9 km/h 1.2 mph /  1.9 km/h 34 % 0.00 in /  0 mm
15:41 73.2 °F /  22.9 °C 43.1 °F /  6.2 °C 30.02 in /  1016.5 hPa NE 3.5 mph /  5.6 km/h 3.5 mph /  5.6 km/h 34 % 0.00 in /  0 mm
15:46 73.5 °F /  23.1 °C 42.6 °F /  5.9 °C 30.02 in /  1016.5 hPa WSW 2.3 mph /  3.7 km/h 2.3 mph /  3.7 km/h 33 % 0.00 in /  0 mm
15:51 73.2 °F /  22.9 °C 42.4 °F /  5.8 °C 30.02 in /  1016.5 hPa WNW 2.3 mph /  3.7 km/h 2.3 mph /  3.7 km/h 33 % 0.00 in /  0 mm
15:56 73.1 °F /  22.8 °C 42.3 °F /  5.7 °C 30.01 in /  1016.1 hPa NW 3.5 mph /  5.6 km/h 3.5 mph /  5.6 km/h 33 % 0.00 in /  0 mm
16:01 73.2 °F /  22.9 °C 43.1 °F /  6.2 °C 30.02 in /  1016.5 hPa NW 4.0 mph /  6.4 km/h 4.0 mph /  6.4 km/h 34 % 0.00 in /  0 mm
16:06 73.1 °F /  22.8 °C 43.8 °F /  6.6 °C 30.02 in /  1016.5 hPa NNW 2.3 mph /  3.7 km/h 2.3 mph /  3.7 km/h 35 % 0.00 in /  0 mm
16:11 73.0 °F /  22.8 °C 43.7 °F /  6.5 °C 30.01 in /  1016.1 hPa North 3.5 mph /  5.6 km/h 3.5 mph /  5.6 km/h 35 % 0.00 in /  0 mm
16:16 73.0 °F /  22.8 °C 42.2 °F /  5.7 °C 30.01 in /  1016.1 hPa NW 2.3 mph /  3.7 km/h 2.3 mph /  3.7 km/h 33 % 0.00 in /  0 mm
16:21 73.0 °F /  22.8 °C 43.0 °F /  6.1 °C 30.01 in /  1016.1 hPa WNW 1.2 mph /  1.9 km/h 1.2 mph /  1.9 km/h 34 % 0.00 in /  0 mm
16:26 72.9 °F /  22.7 °C 43.6 °F /  6.4 °C 30.01 in /  1016.1 hPa NW 3.5 mph /  5.6 km/h 3.5 mph /  5.6 km/h 35 % 0.00 in /  0 mm
16:31 72.8 °F /  22.7 °C 43.5 °F /  6.4 °C 30.01 in /  1016.1 hPa NW 2.3 mph /  3.7 km/h 2.3 mph /  3.7 km/h 35 % 0.00 in /  0 mm
16:36 72.7 °F /  22.6 °C 43.5 °F /  6.4 °C 30.01 in /  1016.1 hPa Calm     35 % 0.00 in /  0 mm
16:41 72.6 °F /  22.6 °C 44.1 °F /  6.7 °C 30.01 in /  1016.1 hPa NW 4.0 mph /  6.4 km/h 4.0 mph /  6.4 km/h 36 % 0.00 in /  0 mm
16:46 72.4 °F /  22.4 °C 43.9 °F /  6.6 °C 30.01 in /  1016.1 hPa NW 2.3 mph /  3.7 km/h 2.3 mph /  3.7 km/h 36 % 0.00 in /  0 mm
16:51 72.2 °F /  22.3 °C 45.2 °F /  7.3 °C 30.01 in /  1016.1 hPa North 4.0 mph /  6.4 km/h 4.0 mph /  6.4 km/h 38 % 0.00 in /  0 mm
Park Place, Exeter, Tulare County, California, USA
Compliments of Weather Underground - 2.25 mb